sensor_id;sensor_type;location;lat;lon;timestamp;temperature;humidity
12971;DHT22;6550;48.650;8.774;2024-02-23T00:02:15;9.30;99.90
12971;DHT22;6550;48.650;8.774;2024-02-23T00:04:42;9.30;99.90
12971;DHT22;6550;48.650;8.774;2024-02-23T00:07:11;9.40;99.90
12971;DHT22;6550;48.650;8.774;2024-02-23T00:09:38;9.20;99.90
12971;DHT22;6550;48.650;8.774;2024-02-23T00:12:05;9.50;99.90
12971;DHT22;6550;48.650;8.774;2024-02-23T00:14:34;9.10;99.90
12971;DHT22;6550;48.650;8.774;2024-02-23T00:17:04;9.10;99.90
12971;DHT22;6550;48.650;8.774;2024-02-23T00:19:36;9.20;99.90
12971;DHT22;6550;48.650;8.774;2024-02-23T00:22:03;9.20;99.90
12971;DHT22;6550;48.650;8.774;2024-02-23T00:24:39;9.20;99.90
12971;DHT22;6550;48.650;8.774;2024-02-23T00:27:07;9.30;99.90
12971;DHT22;6550;48.650;8.774;2024-02-23T00:29:34;9.20;99.90
12971;DHT22;6550;48.650;8.774;2024-02-23T00:32:01;9.10;99.90
12971;DHT22;6550;48.650;8.774;2024-02-23T00:34:28;9.00;99.90
12971;DHT22;6550;48.650;8.774;2024-02-23T00:36:57;9.80;99.90
12971;DHT22;6550;48.650;8.774;2024-02-23T00:39:26;9.80;99.90
12971;DHT22;6550;48.650;8.774;2024-02-23T00:41:53;9.00;99.90
12971;DHT22;6550;48.650;8.774;2024-02-23T00:44:22;9.00;99.90
12971;DHT22;6550;48.650;8.774;2024-02-23T00:46:49;9.00;99.90
12971;DHT22;6550;48.650;8.774;2024-02-23T00:49:16;8.80;99.90
12971;DHT22;6550;48.650;8.774;2024-02-23T00:51:43;9.00;99.90
12971;DHT22;6550;48.650;8.774;2024-02-23T00:54:10;9.40;99.90
12971;DHT22;6550;48.650;8.774;2024-02-23T00:56:37;8.80;99.90
12971;DHT22;6550;48.650;8.774;2024-02-23T00:59:16;9.00;99.90
12971;DHT22;6550;48.650;8.774;2024-02-23T01:01:45;8.90;99.90
12971;DHT22;6550;48.650;8.774;2024-02-23T01:04:15;9.20;99.90
12971;DHT22;6550;48.650;8.774;2024-02-23T01:06:42;8.90;99.90
12971;DHT22;6550;48.650;8.774;2024-02-23T01:09:11;9.60;99.90
12971;DHT22;6550;48.650;8.774;2024-02-23T01:11:37;8.90;99.90
12971;DHT22;6550;48.650;8.774;2024-02-23T01:14:04;8.90;99.90
12971;DHT22;6550;48.650;8.774;2024-02-23T01:16:33;8.90;99.90
12971;DHT22;6550;48.650;8.774;2024-02-23T01:19:04;8.90;99.90
12971;DHT22;6550;48.650;8.774;2024-02-23T01:21:36;9.10;99.90
12971;DHT22;6550;48.650;8.774;2024-02-23T01:24:05;8.80;99.90
12971;DHT22;6550;48.650;8.774;2024-02-23T01:26:32;8.70;99.90
12971;DHT22;6550;48.650;8.774;2024-02-23T01:28:59;8.50;99.90
12971;DHT22;6550;48.650;8.774;2024-02-23T01:33:53;8.80;99.90
12971;DHT22;6550;48.650;8.774;2024-02-23T01:36:20;9.00;99.90
12971;DHT22;6550;48.650;8.774;2024-02-23T01:38:49;8.80;99.90
12971;DHT22;6550;48.650;8.774;2024-02-23T01:41:16;8.80;99.90
12971;DHT22;6550;48.650;8.774;2024-02-23T01:43:43;8.70;99.90
12971;DHT22;6550;48.650;8.774;2024-02-23T01:46:10;8.70;99.90
12971;DHT22;6550;48.650;8.774;2024-02-23T01:48:36;8.70;99.90
12971;DHT22;6550;48.650;8.774;2024-02-23T01:51:03;8.80;99.90
12971;DHT22;6550;48.650;8.774;2024-02-23T01:53:30;8.90;99.90
12971;DHT22;6550;48.650;8.774;2024-02-23T01:56:00;9.00;99.90
12971;DHT22;6550;48.650;8.774;2024-02-23T01:58:29;8.60;99.90
12971;DHT22;6550;48.650;8.774;2024-02-23T02:00:57;9.00;99.90
12971;DHT22;6550;48.650;8.774;2024-02-23T02:03:24;8.80;99.90
12971;DHT22;6550;48.650;8.774;2024-02-23T02:05:52;9.40;99.90
12971;DHT22;6550;48.650;8.774;2024-02-23T02:08:20;8.70;99.90
12971;DHT22;6550;48.650;8.774;2024-02-23T02:10:47;8.60;99.90
12971;DHT22;6550;48.650;8.774;2024-02-23T02:15:41;8.40;99.90
12971;DHT22;6550;48.650;8.774;2024-02-23T02:18:10;9.10;99.90
12971;DHT22;6550;48.650;8.774;2024-02-23T02:20:48;8.40;99.90
12971;DHT22;6550;48.650;8.774;2024-02-23T02:23:19;8.60;99.90
12971;DHT22;6550;48.650;8.774;2024-02-23T02:25:55;8.50;99.90
12971;DHT22;6550;48.650;8.774;2024-02-23T02:28:23;8.50;99.90
12971;DHT22;6550;48.650;8.774;2024-02-23T02:30:53;8.40;99.90
12971;DHT22;6550;48.650;8.774;2024-02-23T02:33:21;8.30;99.90
12971;DHT22;6550;48.650;8.774;2024-02-23T02:35:48;8.40;99.90
12971;DHT22;6550;48.650;8.774;2024-02-23T02:38:16;8.40;99.90
12971;DHT22;6550;48.650;8.774;2024-02-23T02:40:48;8.40;99.90
12971;DHT22;6550;48.650;8.774;2024-02-23T02:43:14;8.40;99.90
12971;DHT22;6550;48.650;8.774;2024-02-23T02:45:41;8.50;99.90
12971;DHT22;6550;48.650;8.774;2024-02-23T02:48:08;8.30;99.90
12971;DHT22;6550;48.650;8.774;2024-02-23T02:50:37;8.40;99.90
12971;DHT22;6550;48.650;8.774;2024-02-23T02:53:06;8.30;99.90
12971;DHT22;6550;48.650;8.774;2024-02-23T02:55:33;8.30;99.90
12971;DHT22;6550;48.650;8.774;2024-02-23T02:58:02;8.20;99.90
12971;DHT22;6550;48.650;8.774;2024-02-23T03:00:31;9.00;99.90
12971;DHT22;6550;48.650;8.774;2024-02-23T03:02:58;8.10;99.90
12971;DHT22;6550;48.650;8.774;2024-02-23T03:05:26;8.20;99.90
12971;DHT22;6550;48.650;8.774;2024-02-23T03:07:52;8.20;99.90
12971;DHT22;6550;48.650;8.774;2024-02-23T03:10:19;8.20;99.90
12971;DHT22;6550;48.650;8.774;2024-02-23T03:12:46;8.20;99.90
12971;DHT22;6550;48.650;8.774;2024-02-23T03:15:13;8.10;99.90
12971;DHT22;6550;48.650;8.774;2024-02-23T03:17:39;8.10;99.90
12971;DHT22;6550;48.650;8.774;2024-02-23T03:20:10;8.00;99.90
12971;DHT22;6550;48.650;8.774;2024-02-23T03:22:40;8.10;99.90
12971;DHT22;6550;48.650;8.774;2024-02-23T03:25:07;8.10;99.90
12971;DHT22;6550;48.650;8.774;2024-02-23T03:27:36;8.00;99.90
12971;DHT22;6550;48.650;8.774;2024-02-23T03:30:04;8.10;99.90
12971;DHT22;6550;48.650;8.774;2024-02-23T03:32:32;8.00;99.90
12971;DHT22;6550;48.650;8.774;2024-02-23T03:35:03;7.90;99.90
12971;DHT22;6550;48.650;8.774;2024-02-23T03:37:31;7.90;99.90
12971;DHT22;6550;48.650;8.774;2024-02-23T03:40:05;8.00;99.90
12971;DHT22;6550;48.650;8.774;2024-02-23T03:42:31;8.00;99.90
12971;DHT22;6550;48.650;8.774;2024-02-23T03:44:58;7.90;99.90
12971;DHT22;6550;48.650;8.774;2024-02-23T03:47:25;8.00;99.90
12971;DHT22;6550;48.650;8.774;2024-02-23T03:49:52;8.10;99.90
12971;DHT22;6550;48.650;8.774;2024-02-23T03:52:19;8.00;99.90
12971;DHT22;6550;48.650;8.774;2024-02-23T03:54:49;8.20;99.90
12971;DHT22;6550;48.650;8.774;2024-02-23T03:57:16;7.80;99.90
12971;DHT22;6550;48.650;8.774;2024-02-23T03:59:55;8.10;99.90
12971;DHT22;6550;48.650;8.774;2024-02-23T04:02:22;7.70;99.90
12971;DHT22;6550;48.650;8.774;2024-02-23T04:04:49;7.80;99.90
12971;DHT22;6550;48.650;8.774;2024-02-23T04:07:17;7.80;99.90
12971;DHT22;6550;48.650;8.774;2024-02-23T04:09:43;7.70;99.90
12971;DHT22;6550;48.650;8.774;2024-02-23T04:12:12;7.70;99.90
12971;DHT22;6550;48.650;8.774;2024-02-23T04:14:39;7.80;99.90
12971;DHT22;6550;48.650;8.774;2024-02-23T04:17:07;7.80;99.90
12971;DHT22;6550;48.650;8.774;2024-02-23T04:19:34;7.80;99.90
12971;DHT22;6550;48.650;8.774;2024-02-23T04:22:01;7.70;99.90
12971;DHT22;6550;48.650;8.774;2024-02-23T04:24:27;8.70;99.90
12971;DHT22;6550;48.650;8.774;2024-02-23T04:26:58;7.80;99.90
12971;DHT22;6550;48.650;8.774;2024-02-23T04:29:25;8.20;99.90
12971;DHT22;6550;48.650;8.774;2024-02-23T04:31:57;7.70;99.90
12971;DHT22;6550;48.650;8.774;2024-02-23T04:34:29;7.70;99.90
12971;DHT22;6550;48.650;8.774;2024-02-23T04:37:00;7.70;99.90
12971;DHT22;6550;48.650;8.774;2024-02-23T04:39:29;7.90;99.90
12971;DHT22;6550;48.650;8.774;2024-02-23T04:41:56;7.40;99.90
12971;DHT22;6550;48.650;8.774;2024-02-23T04:44:25;7.70;99.90
12971;DHT22;6550;48.650;8.774;2024-02-23T04:46:52;7.60;99.90
12971;DHT22;6550;48.650;8.774;2024-02-23T04:49:21;7.60;99.90
12971;DHT22;6550;48.650;8.774;2024-02-23T04:51:48;7.70;99.90
12971;DHT22;6550;48.650;8.774;2024-02-23T04:54:15;7.50;99.90
12971;DHT22;6550;48.650;8.774;2024-02-23T04:56:41;7.60;99.90
12971;DHT22;6550;48.650;8.774;2024-02-23T04:59:13;7.50;99.90
12971;DHT22;6550;48.650;8.774;2024-02-23T05:01:42;7.60;99.90
12971;DHT22;6550;48.650;8.774;2024-02-23T05:06:36;7.50;99.90
12971;DHT22;6550;48.650;8.774;2024-02-23T05:09:03;7.60;99.90
12971;DHT22;6550;48.650;8.774;2024-02-23T05:11:30;7.50;99.90
12971;DHT22;6550;48.650;8.774;2024-02-23T05:13:57;7.40;99.90
12971;DHT22;6550;48.650;8.774;2024-02-23T05:16:24;7.50;99.90
12971;DHT22;6550;48.650;8.774;2024-02-23T05:18:50;7.40;99.90
12971;DHT22;6550;48.650;8.774;2024-02-23T05:21:17;7.50;99.90
12971;DHT22;6550;48.650;8.774;2024-02-23T05:23:44;7.50;99.90
12971;DHT22;6550;48.650;8.774;2024-02-23T05:26:13;7.80;99.90
12971;DHT22;6550;48.650;8.774;2024-02-23T05:28:44;7.60;99.90
12971;DHT22;6550;48.650;8.774;2024-02-23T05:31:11;7.40;99.90
12971;DHT22;6550;48.650;8.774;2024-02-23T05:33:40;7.60;99.90
12971;DHT22;6550;48.650;8.774;2024-02-23T05:36:13;7.40;99.90
12971;DHT22;6550;48.650;8.774;2024-02-23T05:38:40;7.30;99.90
12971;DHT22;6550;48.650;8.774;2024-02-23T05:41:13;7.50;99.90
12971;DHT22;6550;48.650;8.774;2024-02-23T05:43:44;7.20;99.90
12971;DHT22;6550;48.650;8.774;2024-02-23T05:46:11;7.20;99.90
12971;DHT22;6550;48.650;8.774;2024-02-23T05:48:38;7.20;99.90
12971;DHT22;6550;48.650;8.774;2024-02-23T05:51:05;7.50;99.90
12971;DHT22;6550;48.650;8.774;2024-02-23T05:53:31;7.30;99.90
12971;DHT22;6550;48.650;8.774;2024-02-23T05:58:26;7.20;99.90
12971;DHT22;6550;48.650;8.774;2024-02-23T06:00:56;7.20;99.90
12971;DHT22;6550;48.650;8.774;2024-02-23T06:03:25;7.20;99.90
12971;DHT22;6550;48.650;8.774;2024-02-23T06:05:54;7.10;99.90
12971;DHT22;6550;48.650;8.774;2024-02-23T06:08:24;7.20;99.90
12971;DHT22;6550;48.650;8.774;2024-02-23T06:10:51;7.10;99.90
12971;DHT22;6550;48.650;8.774;2024-02-23T06:13:20;7.10;99.90
12971;DHT22;6550;48.650;8.774;2024-02-23T06:15:49;7.10;99.90
12971;DHT22;6550;48.650;8.774;2024-02-23T06:18:15;6.80;99.90
12971;DHT22;6550;48.650;8.774;2024-02-23T06:20:45;7.10;99.90
12971;DHT22;6550;48.650;8.774;2024-02-23T06:23:14;7.00;99.90
12971;DHT22;6550;48.650;8.774;2024-02-23T06:25:41;7.00;99.90
12971;DHT22;6550;48.650;8.774;2024-02-23T06:28:10;6.60;99.90
12971;DHT22;6550;48.650;8.774;2024-02-23T06:30:37;6.70;99.90
12971;DHT22;6550;48.650;8.774;2024-02-23T06:33:08;6.70;99.90
12971;DHT22;6550;48.650;8.774;2024-02-23T06:35:36;7.40;99.90
12971;DHT22;6550;48.650;8.774;2024-02-23T06:38:03;6.70;99.90
12971;DHT22;6550;48.650;8.774;2024-02-23T06:40:29;6.70;99.90
12971;DHT22;6550;48.650;8.774;2024-02-23T06:43:11;6.90;99.90
12971;DHT22;6550;48.650;8.774;2024-02-23T06:45:38;6.80;99.90
12971;DHT22;6550;48.650;8.774;2024-02-23T06:48:08;6.80;99.90
12971;DHT22;6550;48.650;8.774;2024-02-23T06:50:35;6.70;99.90
12971;DHT22;6550;48.650;8.774;2024-02-23T06:53:05;6.90;99.90
12971;DHT22;6550;48.650;8.774;2024-02-23T06:55:34;7.10;99.90
12971;DHT22;6550;48.650;8.774;2024-02-23T06:58:02;7.00;99.90
12971;DHT22;6550;48.650;8.774;2024-02-23T07:00:33;7.30;99.90
12971;DHT22;6550;48.650;8.774;2024-02-23T07:03:01;7.20;99.90
12971;DHT22;6550;48.650;8.774;2024-02-23T07:05:30;7.50;99.90
12971;DHT22;6550;48.650;8.774;2024-02-23T07:07:57;7.30;99.90
12971;DHT22;6550;48.650;8.774;2024-02-23T07:10:24;7.30;99.90
12971;DHT22;6550;48.650;8.774;2024-02-23T07:12:52;7.50;99.90
12971;DHT22;6550;48.650;8.774;2024-02-23T07:15:23;7.40;99.90
12971;DHT22;6550;48.650;8.774;2024-02-23T07:17:51;7.40;99.90
12971;DHT22;6550;48.650;8.774;2024-02-23T07:20:18;7.80;99.90
12971;DHT22;6550;48.650;8.774;2024-02-23T07:25:19;7.50;99.90
12971;DHT22;6550;48.650;8.774;2024-02-23T07:27:49;7.50;99.90
12971;DHT22;6550;48.650;8.774;2024-02-23T07:30:16;7.50;99.90
12971;DHT22;6550;48.650;8.774;2024-02-23T07:32:46;7.60;99.90
12971;DHT22;6550;48.650;8.774;2024-02-23T07:35:18;7.70;99.90
12971;DHT22;6550;48.650;8.774;2024-02-23T07:37:46;7.80;99.90
12971;DHT22;6550;48.650;8.774;2024-02-23T07:42:47;7.60;99.90
12971;DHT22;6550;48.650;8.774;2024-02-23T07:45:16;7.90;99.90
12971;DHT22;6550;48.650;8.774;2024-02-23T07:47:43;7.80;99.90
12971;DHT22;6550;48.650;8.774;2024-02-23T07:50:10;7.80;99.90
12971;DHT22;6550;48.650;8.774;2024-02-23T07:52:42;7.80;99.90
12971;DHT22;6550;48.650;8.774;2024-02-23T07:55:09;7.90;99.90
12971;DHT22;6550;48.650;8.774;2024-02-23T07:57:42;7.80;99.90
12971;DHT22;6550;48.650;8.774;2024-02-23T08:00:09;7.40;99.90
12971;DHT22;6550;48.650;8.774;2024-02-23T08:02:36;7.80;99.90
12971;DHT22;6550;48.650;8.774;2024-02-23T08:07:36;7.90;99.90
12971;DHT22;6550;48.650;8.774;2024-02-23T08:10:06;8.20;99.90
12971;DHT22;6550;48.650;8.774;2024-02-23T08:12:33;8.20;99.90
12971;DHT22;6550;48.650;8.774;2024-02-23T08:15:07;8.40;99.90
12971;DHT22;6550;48.650;8.774;2024-02-23T08:17:36;8.40;99.90
12971;DHT22;6550;48.650;8.774;2024-02-23T08:20:04;8.40;99.90
12971;DHT22;6550;48.650;8.774;2024-02-23T08:22:34;8.50;99.90
12971;DHT22;6550;48.650;8.774;2024-02-23T08:25:03;8.50;99.90
12971;DHT22;6550;48.650;8.774;2024-02-23T08:27:35;8.60;99.90
12971;DHT22;6550;48.650;8.774;2024-02-23T08:32:29;8.80;99.90
12971;DHT22;6550;48.650;8.774;2024-02-23T08:37:26;9.00;99.90
12971;DHT22;6550;48.650;8.774;2024-02-23T08:39:56;9.30;99.90
12971;DHT22;6550;48.650;8.774;2024-02-23T08:44:50;9.10;99.90
12971;DHT22;6550;48.650;8.774;2024-02-23T08:52:11;9.40;99.90
12971;DHT22;6550;48.650;8.774;2024-02-23T08:54:40;9.40;99.90
12971;DHT22;6550;48.650;8.774;2024-02-23T08:57:07;9.70;99.90
12971;DHT22;6550;48.650;8.774;2024-02-23T08:59:34;10.00;99.90
12971;DHT22;6550;48.650;8.774;2024-02-23T09:02:01;9.80;99.90
12971;DHT22;6550;48.650;8.774;2024-02-23T09:04:27;10.40;99.90
12971;DHT22;6550;48.650;8.774;2024-02-23T09:06:57;10.40;99.90
12971;DHT22;6550;48.650;8.774;2024-02-23T09:09:26;10.60;99.90
12971;DHT22;6550;48.650;8.774;2024-02-23T09:11:57;11.40;99.90
12971;DHT22;6550;48.650;8.774;2024-02-23T09:14:26;11.70;99.90
12971;DHT22;6550;48.650;8.774;2024-02-23T09:16:53;11.30;99.90
12971;DHT22;6550;48.650;8.774;2024-02-23T09:19:20;11.80;99.90
12971;DHT22;6550;48.650;8.774;2024-02-23T09:21:49;11.80;99.90
12971;DHT22;6550;48.650;8.774;2024-02-23T09:24:17;12.30;99.90
12971;DHT22;6550;48.650;8.774;2024-02-23T09:26:46;12.00;99.90
12971;DHT22;6550;48.650;8.774;2024-02-23T09:29:14;12.40;99.90
12971;DHT22;6550;48.650;8.774;2024-02-23T09:31:45;12.50;99.90
12971;DHT22;6550;48.650;8.774;2024-02-23T09:34:12;12.70;99.90
12971;DHT22;6550;48.650;8.774;2024-02-23T09:36:41;12.80;99.90
12971;DHT22;6550;48.650;8.774;2024-02-23T09:39:14;13.00;99.90
12971;DHT22;6550;48.650;8.774;2024-02-23T09:41:42;12.70;99.90
12971;DHT22;6550;48.650;8.774;2024-02-23T09:49:07;12.60;99.90
12971;DHT22;6550;48.650;8.774;2024-02-23T09:51:35;12.10;99.90
12971;DHT22;6550;48.650;8.774;2024-02-23T09:54:03;12.20;99.90
12971;DHT22;6550;48.650;8.774;2024-02-23T09:56:34;12.00;99.90
12971;DHT22;6550;48.650;8.774;2024-02-23T09:59:04;12.00;99.90
12971;DHT22;6550;48.650;8.774;2024-02-23T10:01:33;12.40;99.90
12971;DHT22;6550;48.650;8.774;2024-02-23T10:04:01;11.90;99.90
12971;DHT22;6550;48.650;8.774;2024-02-23T10:06:31;11.90;99.90
12971;DHT22;6550;48.650;8.774;2024-02-23T10:08:58;12.10;99.90
12971;DHT22;6550;48.650;8.774;2024-02-23T10:11:29;12.30;99.90
12971;DHT22;6550;48.650;8.774;2024-02-23T10:13:56;12.10;99.90
12971;DHT22;6550;48.650;8.774;2024-02-23T10:18:51;12.00;99.90
12971;DHT22;6550;48.650;8.774;2024-02-23T10:21:21;12.00;99.90
12971;DHT22;6550;48.650;8.774;2024-02-23T10:36:10;11.90;99.90
12971;DHT22;6550;48.650;8.774;2024-02-23T10:38:40;12.00;99.90
12971;DHT22;6550;48.650;8.774;2024-02-23T10:41:12;11.90;99.90
12971;DHT22;6550;48.650;8.774;2024-02-23T10:43:45;12.00;99.90
12971;DHT22;6550;48.650;8.774;2024-02-23T10:46:15;12.00;99.90
12971;DHT22;6550;48.650;8.774;2024-02-23T10:48:44;11.80;99.90
12971;DHT22;6550;48.650;8.774;2024-02-23T10:51:14;12.30;99.90
12971;DHT22;6550;48.650;8.774;2024-02-23T10:53:48;12.40;99.90
12971;DHT22;6550;48.650;8.774;2024-02-23T10:56:18;12.40;99.90
12971;DHT22;6550;48.650;8.774;2024-02-23T10:58:45;12.40;99.90
12971;DHT22;6550;48.650;8.774;2024-02-23T11:01:13;12.40;99.90
12971;DHT22;6550;48.650;8.774;2024-02-23T11:03:43;12.40;99.90
12971;DHT22;6550;48.650;8.774;2024-02-23T11:06:13;12.70;99.90
12971;DHT22;6550;48.650;8.774;2024-02-23T11:08:43;12.70;99.90
12971;DHT22;6550;48.650;8.774;2024-02-23T11:11:10;12.40;99.90
12971;DHT22;6550;48.650;8.774;2024-02-23T11:16:07;12.40;99.90
12971;DHT22;6550;48.650;8.774;2024-02-23T11:18:42;12.30;99.90
12971;DHT22;6550;48.650;8.774;2024-02-23T11:21:09;12.50;99.90
12971;DHT22;6550;48.650;8.774;2024-02-23T11:23:49;12.40;99.90
12971;DHT22;6550;48.650;8.774;2024-02-23T11:26:17;12.30;99.90
12971;DHT22;6550;48.650;8.774;2024-02-23T11:28:48;12.30;99.90
12971;DHT22;6550;48.650;8.774;2024-02-23T11:31:18;12.30;99.90
12971;DHT22;6550;48.650;8.774;2024-02-23T11:36:29;12.90;99.90
12971;DHT22;6550;48.650;8.774;2024-02-23T11:38:57;12.50;99.90
12971;DHT22;6550;48.650;8.774;2024-02-23T11:41:27;12.60;99.90
12971;DHT22;6550;48.650;8.774;2024-02-23T11:43:55;12.70;99.90
12971;DHT22;6550;48.650;8.774;2024-02-23T11:46:25;12.70;99.90
12971;DHT22;6550;48.650;8.774;2024-02-23T11:51:23;12.60;99.90
12971;DHT22;6550;48.650;8.774;2024-02-23T11:53:51;12.70;99.90
12971;DHT22;6550;48.650;8.774;2024-02-23T11:56:22;13.50;99.90
12971;DHT22;6550;48.650;8.774;2024-02-23T11:58:49;12.70;99.90
12971;DHT22;6550;48.650;8.774;2024-02-23T12:01:16;12.60;99.90
12971;DHT22;6550;48.650;8.774;2024-02-23T12:06:11;12.70;99.90
12971;DHT22;6550;48.650;8.774;2024-02-23T12:08:39;12.70;99.90
12971;DHT22;6550;48.650;8.774;2024-02-23T12:11:12;12.30;99.90
12971;DHT22;6550;48.650;8.774;2024-02-23T12:13:40;12.70;99.90
12971;DHT22;6550;48.650;8.774;2024-02-23T12:16:17;12.70;99.90
12971;DHT22;6550;48.650;8.774;2024-02-23T12:18:43;12.70;99.90
12971;DHT22;6550;48.650;8.774;2024-02-23T12:21:15;14.90;99.90
12971;DHT22;6550;48.650;8.774;2024-02-23T12:23:45;12.90;99.90
12971;DHT22;6550;48.650;8.774;2024-02-23T12:26:17;13.00;99.90
12971;DHT22;6550;48.650;8.774;2024-02-23T12:28:44;12.90;99.90
12971;DHT22;6550;48.650;8.774;2024-02-23T12:31:13;13.20;99.90
12971;DHT22;6550;48.650;8.774;2024-02-23T12:36:17;13.30;99.90
12971;DHT22;6550;48.650;8.774;2024-02-23T12:38:44;13.50;99.90
12971;DHT22;6550;48.650;8.774;2024-02-23T12:46:12;13.50;99.90
12971;DHT22;6550;48.650;8.774;2024-02-23T12:48:40;14.00;99.90
12971;DHT22;6550;48.650;8.774;2024-02-23T12:51:10;13.50;99.90
12971;DHT22;6550;48.650;8.774;2024-02-23T12:53:42;13.40;99.90
12971;DHT22;6550;48.650;8.774;2024-02-23T12:56:11;13.50;99.90
12971;DHT22;6550;48.650;8.774;2024-02-23T12:58:39;13.40;99.90
12971;DHT22;6550;48.650;8.774;2024-02-23T13:03:37;13.30;99.90
12971;DHT22;6550;48.650;8.774;2024-02-23T13:06:05;13.30;99.90
12971;DHT22;6550;48.650;8.774;2024-02-23T13:08:33;13.30;99.90
12971;DHT22;6550;48.650;8.774;2024-02-23T13:11:00;13.40;99.90
12971;DHT22;6550;48.650;8.774;2024-02-23T13:15:55;13.40;99.90
12971;DHT22;6550;48.650;8.774;2024-02-23T13:18:23;13.10;99.90
12971;DHT22;6550;48.650;8.774;2024-02-23T13:20:50;13.30;99.90
12971;DHT22;6550;48.650;8.774;2024-02-23T13:23:18;13.10;99.90
12971;DHT22;6550;48.650;8.774;2024-02-23T13:25:47;13.10;99.90
12971;DHT22;6550;48.650;8.774;2024-02-23T13:28:14;13.20;99.90
12971;DHT22;6550;48.650;8.774;2024-02-23T13:30:43;13.20;99.90
12971;DHT22;6550;48.650;8.774;2024-02-23T13:33:11;13.40;99.90
12971;DHT22;6550;48.650;8.774;2024-02-23T13:35:38;13.20;99.90
12971;DHT22;6550;48.650;8.774;2024-02-23T13:38:09;13.40;99.90
12971;DHT22;6550;48.650;8.774;2024-02-23T13:40:38;13.20;99.90
12971;DHT22;6550;48.650;8.774;2024-02-23T13:43:05;13.30;99.90
12971;DHT22;6550;48.650;8.774;2024-02-23T13:48:01;13.10;99.90
12971;DHT22;6550;48.650;8.774;2024-02-23T13:50:29;13.30;99.90
12971;DHT22;6550;48.650;8.774;2024-02-23T13:52:56;13.10;99.90
12971;DHT22;6550;48.650;8.774;2024-02-23T13:55:26;13.20;99.90
12971;DHT22;6550;48.650;8.774;2024-02-23T13:57:52;14.00;99.90
12971;DHT22;6550;48.650;8.774;2024-02-23T14:02:49;13.20;99.90
12971;DHT22;6550;48.650;8.774;2024-02-23T14:05:21;13.00;99.90
12971;DHT22;6550;48.650;8.774;2024-02-23T14:10:20;14.00;99.90
12971;DHT22;6550;48.650;8.774;2024-02-23T14:15:17;13.50;99.90
12971;DHT22;6550;48.650;8.774;2024-02-23T14:17:43;13.40;99.90
12971;DHT22;6550;48.650;8.774;2024-02-23T14:20:11;13.30;99.90
12971;DHT22;6550;48.650;8.774;2024-02-23T14:25:06;13.00;99.90
12971;DHT22;6550;48.650;8.774;2024-02-23T14:27:34;12.70;99.90
12971;DHT22;6550;48.650;8.774;2024-02-23T14:30:01;12.90;99.90
12971;DHT22;6550;48.650;8.774;2024-02-23T14:32:28;12.70;99.90
12971;DHT22;6550;48.650;8.774;2024-02-23T14:37:24;12.60;99.90
12971;DHT22;6550;48.650;8.774;2024-02-23T14:42:21;12.20;99.90
12971;DHT22;6550;48.650;8.774;2024-02-23T14:44:47;12.20;99.90
12971;DHT22;6550;48.650;8.774;2024-02-23T14:49:57;12.10;99.90
12971;DHT22;6550;48.650;8.774;2024-02-23T14:52:24;12.90;99.90
12971;DHT22;6550;48.650;8.774;2024-02-23T14:54:51;11.50;99.90
12971;DHT22;6550;48.650;8.774;2024-02-23T14:59:45;11.90;99.90
12971;DHT22;6550;48.650;8.774;2024-02-23T15:02:20;11.30;99.90
12971;DHT22;6550;48.650;8.774;2024-02-23T15:04:54;11.70;99.90
12971;DHT22;6550;48.650;8.774;2024-02-23T15:07:26;12.00;99.90
12971;DHT22;6550;48.650;8.774;2024-02-23T15:09:56;11.80;99.90
12971;DHT22;6550;48.650;8.774;2024-02-23T15:14:54;11.90;99.90
12971;DHT22;6550;48.650;8.774;2024-02-23T15:17:23;11.90;99.90
12971;DHT22;6550;48.650;8.774;2024-02-23T15:19:50;11.90;99.90
12971;DHT22;6550;48.650;8.774;2024-02-23T15:24:46;11.60;99.90
12971;DHT22;6550;48.650;8.774;2024-02-23T15:27:16;11.90;99.90
12971;DHT22;6550;48.650;8.774;2024-02-23T15:29:48;11.60;99.90
12971;DHT22;6550;48.650;8.774;2024-02-23T15:32:14;11.60;99.90
12971;DHT22;6550;48.650;8.774;2024-02-23T15:34:45;11.50;99.90
12971;DHT22;6550;48.650;8.774;2024-02-23T15:37:11;11.40;99.90
12971;DHT22;6550;48.650;8.774;2024-02-23T15:39:40;11.20;99.90
12971;DHT22;6550;48.650;8.774;2024-02-23T15:42:07;12.00;99.90
12971;DHT22;6550;48.650;8.774;2024-02-23T15:44:34;12.80;99.90
12971;DHT22;6550;48.650;8.774;2024-02-23T15:47:01;12.30;99.90
12971;DHT22;6550;48.650;8.774;2024-02-23T15:54:43;11.80;99.90
12971;DHT22;6550;48.650;8.774;2024-02-23T15:57:15;11.70;99.90
12971;DHT22;6550;48.650;8.774;2024-02-23T15:59:44;11.60;99.90
12971;DHT22;6550;48.650;8.774;2024-02-23T16:02:22;11.50;99.90
12971;DHT22;6550;48.650;8.774;2024-02-23T16:07:16;11.40;99.90
12971;DHT22;6550;48.650;8.774;2024-02-23T16:09:43;11.20;99.90
12971;DHT22;6550;48.650;8.774;2024-02-23T16:12:13;11.70;99.90
12971;DHT22;6550;48.650;8.774;2024-02-23T16:17:07;11.30;99.90
12971;DHT22;6550;48.650;8.774;2024-02-23T16:19:36;11.20;99.90
12971;DHT22;6550;48.650;8.774;2024-02-23T16:22:03;11.20;99.90
12971;DHT22;6550;48.650;8.774;2024-02-23T16:29:25;10.60;99.90
12971;DHT22;6550;48.650;8.774;2024-02-23T16:31:56;11.00;99.90
12971;DHT22;6550;48.650;8.774;2024-02-23T16:34:25;11.00;99.90
12971;DHT22;6550;48.650;8.774;2024-02-23T16:39:20;10.90;99.90
12971;DHT22;6550;48.650;8.774;2024-02-23T16:41:47;10.90;99.90
12971;DHT22;6550;48.650;8.774;2024-02-23T16:46:43;10.80;99.90
12971;DHT22;6550;48.650;8.774;2024-02-23T16:51:37;10.70;99.90
12971;DHT22;6550;48.650;8.774;2024-02-23T16:59:02;10.60;99.90
12971;DHT22;6550;48.650;8.774;2024-02-23T17:01:29;10.50;99.90
12971;DHT22;6550;48.650;8.774;2024-02-23T17:03:55;10.30;99.90
12971;DHT22;6550;48.650;8.774;2024-02-23T17:06:22;10.20;99.90
12971;DHT22;6550;48.650;8.774;2024-02-23T17:08:51;10.10;99.90
12971;DHT22;6550;48.650;8.774;2024-02-23T17:11:19;10.20;99.90
12971;DHT22;6550;48.650;8.774;2024-02-23T17:13:51;9.90;99.90
12971;DHT22;6550;48.650;8.774;2024-02-23T17:16:20;9.90;99.90
12971;DHT22;6550;48.650;8.774;2024-02-23T17:18:53;9.80;99.90
12971;DHT22;6550;48.650;8.774;2024-02-23T17:21:20;9.80;99.90
12971;DHT22;6550;48.650;8.774;2024-02-23T17:23:47;9.80;99.90
12971;DHT22;6550;48.650;8.774;2024-02-23T17:26:14;9.80;99.90
12971;DHT22;6550;48.650;8.774;2024-02-23T17:28:41;9.70;99.90
12971;DHT22;6550;48.650;8.774;2024-02-23T17:33:39;9.70;99.90
12971;DHT22;6550;48.650;8.774;2024-02-23T17:38:38;9.50;99.90
12971;DHT22;6550;48.650;8.774;2024-02-23T17:43:34;9.40;99.90
12971;DHT22;6550;48.650;8.774;2024-02-23T17:46:04;9.30;99.90
12971;DHT22;6550;48.650;8.774;2024-02-23T17:48:34;9.30;99.90
12971;DHT22;6550;48.650;8.774;2024-02-23T17:53:33;9.30;99.90
12971;DHT22;6550;48.650;8.774;2024-02-23T17:56:00;9.40;99.90
12971;DHT22;6550;48.650;8.774;2024-02-23T17:58:27;9.30;99.90
12971;DHT22;6550;48.650;8.774;2024-02-23T18:00:57;9.20;99.90
12971;DHT22;6550;48.650;8.774;2024-02-23T18:03:23;9.10;99.90
12971;DHT22;6550;48.650;8.774;2024-02-23T18:05:50;9.10;99.90
12971;DHT22;6550;48.650;8.774;2024-02-23T18:08:17;9.10;99.90
12971;DHT22;6550;48.650;8.774;2024-02-23T18:10:46;9.00;99.90
12971;DHT22;6550;48.650;8.774;2024-02-23T18:13:13;8.90;99.90
12971;DHT22;6550;48.650;8.774;2024-02-23T18:15:43;9.00;99.90
12971;DHT22;6550;48.650;8.774;2024-02-23T18:18:12;9.20;99.90
12971;DHT22;6550;48.650;8.774;2024-02-23T18:20:43;8.90;99.90